sensor_id;sensor_type;location;lat;lon;timestamp;P1;durP1;ratioP1;P2;durP2;ratioP2
23179;SDS011;11758;45.756;11.432;2023-04-03T00:00:30;0.88;;;0.88;;
23179;SDS011;11758;45.756;11.432;2023-04-03T00:02:56;2.15;;;1.92;;
23179;SDS011;11758;45.756;11.432;2023-04-03T00:05:22;0.85;;;0.85;;
23179;SDS011;11758;45.756;11.432;2023-04-03T00:07:49;0.70;;;0.70;;
23179;SDS011;11758;45.756;11.432;2023-04-03T00:10:15;1.00;;;1.00;;
23179;SDS011;11758;45.756;11.432;2023-04-03T00:12:41;1.20;;;1.20;;
23179;SDS011;11758;45.756;11.432;2023-04-03T00:15:07;0.60;;;0.60;;
23179;SDS011;11758;45.756;11.432;2023-04-03T00:17:34;0.70;;;0.70;;
23179;SDS011;11758;45.756;11.432;2023-04-03T00:20:00;0.85;;;0.85;;
23179;SDS011;11758;45.756;11.432;2023-04-03T00:22:26;0.57;;;0.57;;
23179;SDS011;11758;45.756;11.432;2023-04-03T00:24:53;0.98;;;0.98;;
23179;SDS011;11758;45.756;11.432;2023-04-03T00:27:19;0.60;;;0.60;;
23179;SDS011;11758;45.756;11.432;2023-04-03T00:29:46;0.80;;;0.80;;
23179;SDS011;11758;45.756;11.432;2023-04-03T00:32:12;0.70;;;0.70;;
23179;SDS011;11758;45.756;11.432;2023-04-03T00:34:38;0.63;;;0.63;;
23179;SDS011;11758;45.756;11.432;2023-04-03T00:37:04;0.60;;;0.60;;
23179;SDS011;11758;45.756;11.432;2023-04-03T00:39:31;0.50;;;0.50;;
23179;SDS011;11758;45.756;11.432;2023-04-03T00:41:57;0.57;;;0.57;;
23179;SDS011;11758;45.756;11.432;2023-04-03T00:46:58;0.57;;;0.57;;
23179;SDS011;11758;45.756;11.432;2023-04-03T00:49:25;0.65;;;0.65;;
23179;SDS011;11758;45.756;11.432;2023-04-03T00:51:51;0.63;;;0.63;;
23179;SDS011;11758;45.756;11.432;2023-04-03T00:54:17;0.85;;;0.85;;
23179;SDS011;11758;45.756;11.432;2023-04-03T00:56:43;0.77;;;0.77;;
23179;SDS011;11758;45.756;11.432;2023-04-03T00:59:14;0.90;;;0.90;;
23179;SDS011;11758;45.756;11.432;2023-04-03T01:01:41;1.10;;;1.10;;
23179;SDS011;11758;45.756;11.432;2023-04-03T01:06:53;1.85;;;1.02;;
23179;SDS011;11758;45.756;11.432;2023-04-03T01:09:19;2.00;;;1.02;;
23179;SDS011;11758;45.756;11.432;2023-04-03T01:11:45;1.40;;;1.30;;
23179;SDS011;11758;45.756;11.432;2023-04-03T01:14:11;0.90;;;0.90;;
23179;SDS011;11758;45.756;11.432;2023-04-03T01:16:38;1.13;;;1.13;;
23179;SDS011;11758;45.756;11.432;2023-04-03T01:19:05;1.02;;;1.02;;
23179;SDS011;11758;45.756;11.432;2023-04-03T01:26:29;1.35;;;1.20;;
23179;SDS011;11758;45.756;11.432;2023-04-03T01:28:55;1.85;;;1.35;;
23179;SDS011;11758;45.756;11.432;2023-04-03T01:31:29;1.25;;;1.25;;
23179;SDS011;11758;45.756;11.432;2023-04-03T01:33:57;1.40;;;1.30;;
23179;SDS011;11758;45.756;11.432;2023-04-03T01:36:24;2.05;;;1.77;;
23179;SDS011;11758;45.756;11.432;2023-04-03T01:38:51;1.45;;;1.45;;
23179;SDS011;11758;45.756;11.432;2023-04-03T01:41:17;1.65;;;1.55;;
23179;SDS011;11758;45.756;11.432;2023-04-03T01:43:43;1.58;;;1.48;;
23179;SDS011;11758;45.756;11.432;2023-04-03T01:46:10;1.50;;;1.40;;
23179;SDS011;11758;45.756;11.432;2023-04-03T01:48:36;2.15;;;1.65;;
23179;SDS011;11758;45.756;11.432;2023-04-03T01:51:02;1.88;;;1.80;;
23179;SDS011;11758;45.756;11.432;2023-04-03T01:53:29;1.40;;;1.40;;
23179;SDS011;11758;45.756;11.432;2023-04-03T01:55:55;1.63;;;1.52;;
23179;SDS011;11758;45.756;11.432;2023-04-03T01:58:21;2.88;;;1.38;;
23179;SDS011;11758;45.756;11.432;2023-04-03T02:00:47;1.52;;;1.33;;
23179;SDS011;11758;45.756;11.432;2023-04-03T02:03:13;1.90;;;1.35;;
23179;SDS011;11758;45.756;11.432;2023-04-03T02:05:40;2.30;;;1.20;;
23179;SDS011;11758;45.756;11.432;2023-04-03T02:08:06;1.50;;;1.50;;
23179;SDS011;11758;45.756;11.432;2023-04-03T02:10:32;1.30;;;1.30;;
23179;SDS011;11758;45.756;11.432;2023-04-03T02:12:58;1.50;;;1.40;;
23179;SDS011;11758;45.756;11.432;2023-04-03T02:15:24;2.35;;;1.42;;
23179;SDS011;11758;45.756;11.432;2023-04-03T02:17:51;1.70;;;1.40;;
23179;SDS011;11758;45.756;11.432;2023-04-03T02:20:17;1.52;;;1.50;;
23179;SDS011;11758;45.756;11.432;2023-04-03T02:22:43;3.05;;;2.10;;
23179;SDS011;11758;45.756;11.432;2023-04-03T02:25:09;1.88;;;1.65;;
23179;SDS011;11758;45.756;11.432;2023-04-03T02:27:36;2.00;;;1.80;;
23179;SDS011;11758;45.756;11.432;2023-04-03T02:30:03;1.48;;;1.48;;
23179;SDS011;11758;45.756;11.432;2023-04-03T02:32:30;1.58;;;1.48;;
23179;SDS011;11758;45.756;11.432;2023-04-03T02:34:56;2.05;;;1.95;;
23179;SDS011;11758;45.756;11.432;2023-04-03T02:37:22;1.85;;;1.75;;
23179;SDS011;11758;45.756;11.432;2023-04-03T02:39:48;4.15;;;1.33;;
23179;SDS011;11758;45.756;11.432;2023-04-03T02:42:14;1.73;;;1.52;;
23179;SDS011;11758;45.756;11.432;2023-04-03T02:44:40;1.70;;;1.60;;
23179;SDS011;11758;45.756;11.432;2023-04-03T02:47:06;1.80;;;1.70;;
23179;SDS011;11758;45.756;11.432;2023-04-03T02:49:33;1.40;;;1.40;;
23179;SDS011;11758;45.756;11.432;2023-04-03T02:51:59;1.60;;;1.50;;
23179;SDS011;11758;45.756;11.432;2023-04-03T02:54:25;1.20;;;1.20;;
23179;SDS011;11758;45.756;11.432;2023-04-03T02:56:53;1.30;;;1.20;;
23179;SDS011;11758;45.756;11.432;2023-04-03T02:59:19;1.40;;;1.30;;
23179;SDS011;11758;45.756;11.432;2023-04-03T03:01:46;2.05;;;1.20;;
23179;SDS011;11758;45.756;11.432;2023-04-03T03:04:12;1.35;;;1.35;;
23179;SDS011;11758;45.756;11.432;2023-04-03T03:06:38;1.65;;;1.63;;
23179;SDS011;11758;45.756;11.432;2023-04-03T03:09:05;1.83;;;1.73;;
23179;SDS011;11758;45.756;11.432;2023-04-03T03:11:31;2.67;;;1.30;;
23179;SDS011;11758;45.756;11.432;2023-04-03T03:13:57;2.08;;;1.58;;
23179;SDS011;11758;45.756;11.432;2023-04-03T03:16:23;1.65;;;1.55;;
23179;SDS011;11758;45.756;11.432;2023-04-03T03:18:49;1.73;;;1.63;;
23179;SDS011;11758;45.756;11.432;2023-04-03T03:21:16;1.50;;;1.40;;
23179;SDS011;11758;45.756;11.432;2023-04-03T03:23:42;1.40;;;1.30;;
23179;SDS011;11758;45.756;11.432;2023-04-03T03:26:09;1.25;;;1.15;;
23179;SDS011;11758;45.756;11.432;2023-04-03T03:28:36;3.03;;;1.65;;
23179;SDS011;11758;45.756;11.432;2023-04-03T03:31:02;1.60;;;1.50;;
23179;SDS011;11758;45.756;11.432;2023-04-03T03:33:28;2.05;;;1.52;;
23179;SDS011;11758;45.756;11.432;2023-04-03T03:35:55;1.95;;;1.35;;
23179;SDS011;11758;45.756;11.432;2023-04-03T03:38:21;1.23;;;1.23;;
23179;SDS011;11758;45.756;11.432;2023-04-03T03:40:47;1.35;;;1.30;;
23179;SDS011;11758;45.756;11.432;2023-04-03T03:43:14;2.38;;;1.10;;
23179;SDS011;11758;45.756;11.432;2023-04-03T03:45:40;1.60;;;1.25;;
23179;SDS011;11758;45.756;11.432;2023-04-03T03:48:06;1.10;;;1.00;;
23179;SDS011;11758;45.756;11.432;2023-04-03T03:50:32;1.55;;;1.50;;
23179;SDS011;11758;45.756;11.432;2023-04-03T03:52:59;5.05;;;4.05;;
23179;SDS011;11758;45.756;11.432;2023-04-03T03:55:25;1.33;;;1.33;;
23179;SDS011;11758;45.756;11.432;2023-04-03T03:57:51;1.40;;;1.40;;
23179;SDS011;11758;45.756;11.432;2023-04-03T04:00:17;5.57;;;4.82;;
23179;SDS011;11758;45.756;11.432;2023-04-03T04:02:43;1.83;;;1.73;;
23179;SDS011;11758;45.756;11.432;2023-04-03T04:05:09;1.52;;;1.40;;
23179;SDS011;11758;45.756;11.432;2023-04-03T04:07:35;1.90;;;1.35;;
23179;SDS011;11758;45.756;11.432;2023-04-03T04:10:02;1.63;;;1.58;;
23179;SDS011;11758;45.756;11.432;2023-04-03T04:12:28;1.95;;;1.50;;
23179;SDS011;11758;45.756;11.432;2023-04-03T04:14:54;4.00;;;1.45;;
23179;SDS011;11758;45.756;11.432;2023-04-03T04:17:21;1.30;;;1.30;;
23179;SDS011;11758;45.756;11.432;2023-04-03T04:19:47;1.38;;;1.35;;
23179;SDS011;11758;45.756;11.432;2023-04-03T04:22:13;1.70;;;1.45;;
23179;SDS011;11758;45.756;11.432;2023-04-03T04:24:39;4.25;;;1.50;;
23179;SDS011;11758;45.756;11.432;2023-04-03T04:27:05;2.10;;;1.83;;
23179;SDS011;11758;45.756;11.432;2023-04-03T04:29:31;2.67;;;2.47;;
23179;SDS011;11758;45.756;11.432;2023-04-03T04:32:01;2.10;;;2.00;;
23179;SDS011;11758;45.756;11.432;2023-04-03T04:34:27;1.80;;;1.80;;
23179;SDS011;11758;45.756;11.432;2023-04-03T04:36:54;1.85;;;1.60;;
23179;SDS011;11758;45.756;11.432;2023-04-03T04:39:20;1.95;;;1.85;;
23179;SDS011;11758;45.756;11.432;2023-04-03T04:41:46;1.88;;;1.80;;
23179;SDS011;11758;45.756;11.432;2023-04-03T04:44:12;2.15;;;2.05;;
23179;SDS011;11758;45.756;11.432;2023-04-03T04:46:38;5.18;;;2.58;;
23179;SDS011;11758;45.756;11.432;2023-04-03T04:49:05;1.58;;;1.58;;
23179;SDS011;11758;45.756;11.432;2023-04-03T04:51:31;1.70;;;1.60;;
23179;SDS011;11758;45.756;11.432;2023-04-03T04:53:57;5.85;;;3.08;;
23179;SDS011;11758;45.756;11.432;2023-04-03T04:56:23;6.35;;;4.45;;
23179;SDS011;11758;45.756;11.432;2023-04-03T04:58:50;2.35;;;1.80;;
23179;SDS011;11758;45.756;11.432;2023-04-03T05:04:20;2.15;;;2.03;;
23179;SDS011;11758;45.756;11.432;2023-04-03T05:06:46;3.42;;;2.20;;
23179;SDS011;11758;45.756;11.432;2023-04-03T05:09:12;2.92;;;2.50;;
23179;SDS011;11758;45.756;11.432;2023-04-03T05:11:38;1.90;;;1.80;;
23179;SDS011;11758;45.756;11.432;2023-04-03T05:14:04;8.27;;;4.78;;
23179;SDS011;11758;45.756;11.432;2023-04-03T05:16:32;1.70;;;1.60;;
23179;SDS011;11758;45.756;11.432;2023-04-03T05:18:58;5.25;;;1.80;;
23179;SDS011;11758;45.756;11.432;2023-04-03T05:21:24;3.33;;;1.63;;
23179;SDS011;11758;45.756;11.432;2023-04-03T05:23:51;3.30;;;2.53;;
23179;SDS011;11758;45.756;11.432;2023-04-03T05:26:17;7.25;;;2.70;;
23179;SDS011;11758;45.756;11.432;2023-04-03T05:28:43;4.80;;;3.38;;
23179;SDS011;11758;45.756;11.432;2023-04-03T05:31:09;6.53;;;2.88;;
23179;SDS011;11758;45.756;11.432;2023-04-03T05:33:35;10.95;;;3.92;;
23179;SDS011;11758;45.756;11.432;2023-04-03T05:36:03;10.10;;;3.20;;
23179;SDS011;11758;45.756;11.432;2023-04-03T05:38:29;9.63;;;3.55;;
23179;SDS011;11758;45.756;11.432;2023-04-03T05:40:55;8.60;;;4.45;;
23179;SDS011;11758;45.756;11.432;2023-04-03T05:43:21;4.57;;;2.90;;
23179;SDS011;11758;45.756;11.432;2023-04-03T05:45:47;4.20;;;1.65;;
23179;SDS011;11758;45.756;11.432;2023-04-03T05:48:14;8.85;;;2.05;;
23179;SDS011;11758;45.756;11.432;2023-04-03T05:50:40;5.15;;;2.47;;
23179;SDS011;11758;45.756;11.432;2023-04-03T05:53:07;2.97;;;2.33;;
23179;SDS011;11758;45.756;11.432;2023-04-03T05:55:39;2.47;;;2.28;;
23179;SDS011;11758;45.756;11.432;2023-04-03T05:58:05;2.25;;;2.13;;
23179;SDS011;11758;45.756;11.432;2023-04-03T06:00:31;2.45;;;2.17;;
23179;SDS011;11758;45.756;11.432;2023-04-03T06:02:57;2.13;;;1.85;;
23179;SDS011;11758;45.756;11.432;2023-04-03T06:05:23;7.63;;;2.30;;
23179;SDS011;11758;45.756;11.432;2023-04-03T06:07:49;3.50;;;2.28;;
23179;SDS011;11758;45.756;11.432;2023-04-03T06:10:15;5.53;;;2.50;;
23179;SDS011;11758;45.756;11.432;2023-04-03T06:12:42;3.42;;;2.42;;
23179;SDS011;11758;45.756;11.432;2023-04-03T06:15:08;2.00;;;1.90;;
23179;SDS011;11758;45.756;11.432;2023-04-03T06:17:35;6.15;;;2.30;;
23179;SDS011;11758;45.756;11.432;2023-04-03T06:20:02;3.90;;;2.38;;
23179;SDS011;11758;45.756;11.432;2023-04-03T06:22:28;5.43;;;2.38;;
23179;SDS011;11758;45.756;11.432;2023-04-03T06:24:55;5.63;;;2.60;;
23179;SDS011;11758;45.756;11.432;2023-04-03T06:27:21;5.03;;;2.70;;
23179;SDS011;11758;45.756;11.432;2023-04-03T06:29:47;3.63;;;2.97;;
23179;SDS011;11758;45.756;11.432;2023-04-03T06:32:14;5.40;;;2.30;;
23179;SDS011;11758;45.756;11.432;2023-04-03T06:34:41;2.00;;;1.80;;
23179;SDS011;11758;45.756;11.432;2023-04-03T06:37:13;34.33;;;19.95;;
23179;SDS011;11758;45.756;11.432;2023-04-03T06:39:40;38.15;;;19.27;;
23179;SDS011;11758;45.756;11.432;2023-04-03T06:42:07;10.27;;;6.35;;
23179;SDS011;11758;45.756;11.432;2023-04-03T06:44:33;2.00;;;1.90;;
23179;SDS011;11758;45.756;11.432;2023-04-03T06:47:00;3.55;;;1.45;;
23179;SDS011;11758;45.756;11.432;2023-04-03T06:49:26;6.38;;;1.52;;
23179;SDS011;11758;45.756;11.432;2023-04-03T06:51:52;2.35;;;1.35;;
23179;SDS011;11758;45.756;11.432;2023-04-03T06:54:19;4.57;;;1.60;;
23179;SDS011;11758;45.756;11.432;2023-04-03T06:56:45;10.57;;;1.70;;
23179;SDS011;11758;45.756;11.432;2023-04-03T06:59:11;3.65;;;1.40;;
23179;SDS011;11758;45.756;11.432;2023-04-03T07:01:38;1.80;;;1.70;;
23179;SDS011;11758;45.756;11.432;2023-04-03T07:04:05;3.60;;;1.65;;
23179;SDS011;11758;45.756;11.432;2023-04-03T07:06:32;3.63;;;1.80;;
23179;SDS011;11758;45.756;11.432;2023-04-03T07:08:58;6.43;;;2.22;;
23179;SDS011;11758;45.756;11.432;2023-04-03T07:11:25;3.70;;;1.88;;
23179;SDS011;11758;45.756;11.432;2023-04-03T07:13:51;4.72;;;2.25;;
23179;SDS011;11758;45.756;11.432;2023-04-03T07:16:18;3.70;;;2.10;;
23179;SDS011;11758;45.756;11.432;2023-04-03T07:18:46;2.67;;;1.90;;
23179;SDS011;11758;45.756;11.432;2023-04-03T07:21:12;2.10;;;2.00;;
23179;SDS011;11758;45.756;11.432;2023-04-03T07:23:39;2.65;;;2.45;;
23179;SDS011;11758;45.756;11.432;2023-04-03T07:26:06;3.92;;;2.15;;
23179;SDS011;11758;45.756;11.432;2023-04-03T07:28:33;3.03;;;2.10;;
23179;SDS011;11758;45.756;11.432;2023-04-03T07:31:04;6.03;;;2.40;;
23179;SDS011;11758;45.756;11.432;2023-04-03T07:33:36;7.85;;;2.30;;
23179;SDS011;11758;45.756;11.432;2023-04-03T07:36:02;3.03;;;2.42;;
23179;SDS011;11758;45.756;11.432;2023-04-03T07:38:29;3.00;;;2.75;;
23179;SDS011;11758;45.756;11.432;2023-04-03T07:40:55;4.35;;;2.15;;
23179;SDS011;11758;45.756;11.432;2023-04-03T07:43:21;8.35;;;2.05;;
23179;SDS011;11758;45.756;11.432;2023-04-03T07:45:49;6.32;;;2.72;;
23179;SDS011;11758;45.756;11.432;2023-04-03T07:48:16;1.95;;;1.90;;
23179;SDS011;11758;45.756;11.432;2023-04-03T07:50:43;2.80;;;1.90;;
23179;SDS011;11758;45.756;11.432;2023-04-03T07:53:09;11.00;;;2.40;;
23179;SDS011;11758;45.756;11.432;2023-04-03T07:55:36;7.53;;;2.20;;
23179;SDS011;11758;45.756;11.432;2023-04-03T07:58:08;2.53;;;2.00;;
23179;SDS011;11758;45.756;11.432;2023-04-03T08:00:35;3.78;;;1.90;;
23179;SDS011;11758;45.756;11.432;2023-04-03T08:03:03;5.38;;;2.00;;
23179;SDS011;11758;45.756;11.432;2023-04-03T08:05:29;3.55;;;2.10;;
23179;SDS011;11758;45.756;11.432;2023-04-03T08:07:55;7.93;;;2.40;;
23179;SDS011;11758;45.756;11.432;2023-04-03T08:10:21;7.50;;;2.28;;
23179;SDS011;11758;45.756;11.432;2023-04-03T08:12:47;3.63;;;2.45;;
23179;SDS011;11758;45.756;11.432;2023-04-03T08:15:13;5.47;;;2.90;;
23179;SDS011;11758;45.756;11.432;2023-04-03T08:17:39;3.53;;;2.83;;
23179;SDS011;11758;45.756;11.432;2023-04-03T08:20:06;4.55;;;2.85;;
23179;SDS011;11758;45.756;11.432;2023-04-03T08:22:33;11.15;;;2.50;;
23179;SDS011;11758;45.756;11.432;2023-04-03T08:24:59;8.90;;;2.40;;
23179;SDS011;11758;45.756;11.432;2023-04-03T08:27:26;4.97;;;2.67;;
23179;SDS011;11758;45.756;11.432;2023-04-03T08:29:53;5.95;;;2.25;;
23179;SDS011;11758;45.756;11.432;2023-04-03T08:32:20;5.60;;;2.67;;
23179;SDS011;11758;45.756;11.432;2023-04-03T08:34:46;6.03;;;2.70;;
23179;SDS011;11758;45.756;11.432;2023-04-03T08:37:12;4.32;;;2.38;;
23179;SDS011;11758;45.756;11.432;2023-04-03T08:39:38;4.32;;;2.83;;
23179;SDS011;11758;45.756;11.432;2023-04-03T08:42:31;9.55;;;2.70;;
23179;SDS011;11758;45.756;11.432;2023-04-03T08:45:19;3.42;;;2.60;;
23179;SDS011;11758;45.756;11.432;2023-04-03T08:50:45;3.75;;;2.90;;
23179;SDS011;11758;45.756;11.432;2023-04-03T08:53:14;9.07;;;2.95;;
23179;SDS011;11758;45.756;11.432;2023-04-03T08:55:48;7.78;;;2.95;;
23179;SDS011;11758;45.756;11.432;2023-04-03T08:58:19;8.40;;;3.17;;
23179;SDS011;11758;45.756;11.432;2023-04-03T09:00:50;11.13;;;3.90;;
23179;SDS011;11758;45.756;11.432;2023-04-03T09:03:17;8.90;;;4.10;;
23179;SDS011;11758;45.756;11.432;2023-04-03T09:08:23;13.68;;;4.18;;
23179;SDS011;11758;45.756;11.432;2023-04-03T09:11:04;10.57;;;3.50;;
23179;SDS011;11758;45.756;11.432;2023-04-03T09:16:21;7.35;;;3.70;;
23179;SDS011;11758;45.756;11.432;2023-04-03T09:18:53;4.93;;;3.72;;
23179;SDS011;11758;45.756;11.432;2023-04-03T09:21:42;7.35;;;3.65;;
23179;SDS011;11758;45.756;11.432;2023-04-03T09:24:09;5.55;;;3.47;;
23179;SDS011;11758;45.756;11.432;2023-04-03T09:26:39;5.90;;;4.10;;
23179;SDS011;11758;45.756;11.432;2023-04-03T09:29:06;7.53;;;3.78;;
23179;SDS011;11758;45.756;11.432;2023-04-03T09:31:36;4.07;;;3.60;;
23179;SDS011;11758;45.756;11.432;2023-04-03T09:34:05;10.45;;;3.80;;
23179;SDS011;11758;45.756;11.432;2023-04-03T09:36:42;5.32;;;3.65;;
23179;SDS011;11758;45.756;11.432;2023-04-03T09:39:16;9.07;;;3.70;;
23179;SDS011;11758;45.756;11.432;2023-04-03T09:41:54;5.88;;;3.72;;
23179;SDS011;11758;45.756;11.432;2023-04-03T09:44:24;9.00;;;3.90;;
23179;SDS011;11758;45.756;11.432;2023-04-03T09:46:51;7.80;;;4.75;;
23179;SDS011;11758;45.756;11.432;2023-04-03T09:49:17;6.20;;;3.42;;
23179;SDS011;11758;45.756;11.432;2023-04-03T09:51:44;3.95;;;3.65;;
23179;SDS011;11758;45.756;11.432;2023-04-03T09:56:55;8.55;;;4.00;;
23179;SDS011;11758;45.756;11.432;2023-04-03T09:59:26;4.85;;;3.97;;
23179;SDS011;11758;45.756;11.432;2023-04-03T10:01:57;7.32;;;5.20;;
23179;SDS011;11758;45.756;11.432;2023-04-03T10:04:24;4.78;;;4.15;;
23179;SDS011;11758;45.756;11.432;2023-04-03T10:06:54;5.32;;;4.40;;
23179;SDS011;11758;45.756;11.432;2023-04-03T10:09:30;5.30;;;4.07;;
23179;SDS011;11758;45.756;11.432;2023-04-03T10:14:31;4.32;;;3.60;;
23179;SDS011;11758;45.756;11.432;2023-04-03T10:19:44;5.28;;;4.78;;
23179;SDS011;11758;45.756;11.432;2023-04-03T10:22:16;8.57;;;4.00;;
23179;SDS011;11758;45.756;11.432;2023-04-03T10:27:18;7.63;;;4.03;;
23179;SDS011;11758;45.756;11.432;2023-04-03T10:34:48;4.20;;;3.53;;
23179;SDS011;11758;45.756;11.432;2023-04-03T10:48:04;3.70;;;3.40;;
23179;SDS011;11758;45.756;11.432;2023-04-03T10:56:04;7.60;;;3.70;;
23179;SDS011;11758;45.756;11.432;2023-04-03T10:58:38;7.72;;;4.07;;
23179;SDS011;11758;45.756;11.432;2023-04-03T11:01:24;3.47;;;3.20;;
23179;SDS011;11758;45.756;11.432;2023-04-03T11:03:54;11.38;;;5.75;;
23179;SDS011;11758;45.756;11.432;2023-04-03T11:06:23;4.85;;;4.03;;
23179;SDS011;11758;45.756;11.432;2023-04-03T11:08:54;12.68;;;4.18;;
23179;SDS011;11758;45.756;11.432;2023-04-03T11:11:32;7.05;;;3.53;;
23179;SDS011;11758;45.756;11.432;2023-04-03T11:16:30;6.25;;;4.25;;
23179;SDS011;11758;45.756;11.432;2023-04-03T11:18:59;8.10;;;4.47;;
23179;SDS011;11758;45.756;11.432;2023-04-03T11:21:34;6.20;;;4.20;;
23179;SDS011;11758;45.756;11.432;2023-04-03T11:24:04;7.03;;;4.15;;
23179;SDS011;11758;45.756;11.432;2023-04-03T11:26:35;4.82;;;4.20;;
23179;SDS011;11758;45.756;11.432;2023-04-03T11:29:04;6.63;;;3.92;;
23179;SDS011;11758;45.756;11.432;2023-04-03T11:36:56;4.78;;;4.22;;
23179;SDS011;11758;45.756;11.432;2023-04-03T11:45:15;7.18;;;4.60;;
23179;SDS011;11758;45.756;11.432;2023-04-03T12:08:24;7.13;;;4.28;;
23179;SDS011;11758;45.756;11.432;2023-04-03T12:16:21;5.00;;;4.60;;
23179;SDS011;11758;45.756;11.432;2023-04-03T12:26:27;6.97;;;4.40;;
23179;SDS011;11758;45.756;11.432;2023-04-03T12:28:54;4.38;;;3.97;;
23179;SDS011;11758;45.756;11.432;2023-04-03T12:31:22;8.32;;;4.60;;
23179;SDS011;11758;45.756;11.432;2023-04-03T12:39:33;4.35;;;4.05;;
23179;SDS011;11758;45.756;11.432;2023-04-03T12:42:05;12.40;;;5.05;;
23179;SDS011;11758;45.756;11.432;2023-04-03T12:47:18;9.88;;;5.03;;
23179;SDS011;11758;45.756;11.432;2023-04-03T12:49:45;8.68;;;4.50;;
23179;SDS011;11758;45.756;11.432;2023-04-03T12:52:30;8.07;;;5.05;;
23179;SDS011;11758;45.756;11.432;2023-04-03T12:54:58;5.50;;;4.95;;
23179;SDS011;11758;45.756;11.432;2023-04-03T12:57:29;8.77;;;5.22;;
23179;SDS011;11758;45.756;11.432;2023-04-03T12:59:55;5.68;;;4.30;;
23179;SDS011;11758;45.756;11.432;2023-04-03T13:04:58;6.95;;;4.50;;
23179;SDS011;11758;45.756;11.432;2023-04-03T13:07:27;6.45;;;3.95;;
23179;SDS011;11758;45.756;11.432;2023-04-03T13:09:56;6.47;;;4.78;;
23179;SDS011;11758;45.756;11.432;2023-04-03T13:12:24;6.75;;;4.38;;
23179;SDS011;11758;45.756;11.432;2023-04-03T13:14:54;4.45;;;4.10;;
23179;SDS011;11758;45.756;11.432;2023-04-03T13:17:21;7.35;;;4.40;;
23179;SDS011;11758;45.756;11.432;2023-04-03T13:19:47;5.95;;;4.15;;
23179;SDS011;11758;45.756;11.432;2023-04-03T13:24:42;5.97;;;4.28;;
23179;SDS011;11758;45.756;11.432;2023-04-03T13:27:10;6.45;;;5.20;;
23179;SDS011;11758;45.756;11.432;2023-04-03T13:29:37;4.30;;;3.90;;
23179;SDS011;11758;45.756;11.432;2023-04-03T13:32:05;5.53;;;4.30;;
23179;SDS011;11758;45.756;11.432;2023-04-03T13:34:36;7.38;;;4.47;;
23179;SDS011;11758;45.756;11.432;2023-04-03T13:37:04;5.90;;;4.57;;
23179;SDS011;11758;45.756;11.432;2023-04-03T13:39:34;7.50;;;4.30;;
23179;SDS011;11758;45.756;11.432;2023-04-03T13:45:16;17.17;;;6.05;;
23179;SDS011;11758;45.756;11.432;2023-04-03T13:47:45;9.10;;;4.88;;
23179;SDS011;11758;45.756;11.432;2023-04-03T13:52:41;10.45;;;5.10;;
23179;SDS011;11758;45.756;11.432;2023-04-03T13:57:50;6.13;;;4.95;;
23179;SDS011;11758;45.756;11.432;2023-04-03T14:00:21;7.90;;;5.50;;
23179;SDS011;11758;45.756;11.432;2023-04-03T14:02:47;7.82;;;5.57;;
23179;SDS011;11758;45.756;11.432;2023-04-03T14:05:14;8.20;;;5.60;;
23179;SDS011;11758;45.756;11.432;2023-04-03T14:07:41;8.15;;;4.97;;
23179;SDS011;11758;45.756;11.432;2023-04-03T14:10:07;9.13;;;6.13;;
23179;SDS011;11758;45.756;11.432;2023-04-03T14:12:34;10.30;;;6.45;;
23179;SDS011;11758;45.756;11.432;2023-04-03T14:15:03;6.20;;;5.60;;
23179;SDS011;11758;45.756;11.432;2023-04-03T14:17:30;8.27;;;4.93;;
23179;SDS011;11758;45.756;11.432;2023-04-03T14:19:56;7.25;;;5.30;;
23179;SDS011;11758;45.756;11.432;2023-04-03T14:22:24;5.63;;;5.10;;
23179;SDS011;11758;45.756;11.432;2023-04-03T14:24:51;12.48;;;4.93;;
23179;SDS011;11758;45.756;11.432;2023-04-03T14:27:19;5.40;;;4.97;;
23179;SDS011;11758;45.756;11.432;2023-04-03T14:29:47;4.93;;;4.53;;
23179;SDS011;11758;45.756;11.432;2023-04-03T14:32:14;5.22;;;4.72;;
23179;SDS011;11758;45.756;11.432;2023-04-03T14:37:44;5.65;;;5.15;;
23179;SDS011;11758;45.756;11.432;2023-04-03T14:40:16;8.63;;;5.18;;
23179;SDS011;11758;45.756;11.432;2023-04-03T14:42:43;8.40;;;5.25;;
23179;SDS011;11758;45.756;11.432;2023-04-03T14:45:13;12.93;;;5.53;;
23179;SDS011;11758;45.756;11.432;2023-04-03T14:47:42;8.23;;;5.38;;
23179;SDS011;11758;45.756;11.432;2023-04-03T14:50:12;8.30;;;5.15;;
23179;SDS011;11758;45.756;11.432;2023-04-03T14:52:39;13.07;;;5.63;;
23179;SDS011;11758;45.756;11.432;2023-04-03T14:55:06;6.25;;;5.55;;
23179;SDS011;11758;45.756;11.432;2023-04-03T14:57:32;6.82;;;5.43;;
23179;SDS011;11758;45.756;11.432;2023-04-03T14:59:58;5.57;;;5.07;;
23179;SDS011;11758;45.756;11.432;2023-04-03T15:04:55;9.98;;;5.35;;
23179;SDS011;11758;45.756;11.432;2023-04-03T15:07:22;5.30;;;4.82;;
23179;SDS011;11758;45.756;11.432;2023-04-03T15:09:49;10.20;;;5.40;;
23179;SDS011;11758;45.756;11.432;2023-04-03T15:12:15;6.97;;;4.85;;
23179;SDS011;11758;45.756;11.432;2023-04-03T15:14:42;7.15;;;5.90;;
23179;SDS011;11758;45.756;11.432;2023-04-03T15:17:14;6.45;;;4.90;;
23179;SDS011;11758;45.756;11.432;2023-04-03T15:19:40;8.05;;;5.47;;
23179;SDS011;11758;45.756;11.432;2023-04-03T15:22:08;14.15;;;5.32;;
23179;SDS011;11758;45.756;11.432;2023-04-03T15:24:35;6.80;;;5.38;;
23179;SDS011;11758;45.756;11.432;2023-04-03T15:27:01;6.15;;;5.00;;
23179;SDS011;11758;45.756;11.432;2023-04-03T15:29:27;8.45;;;5.68;;
23179;SDS011;11758;45.756;11.432;2023-04-03T15:31:53;10.20;;;6.03;;
23179;SDS011;11758;45.756;11.432;2023-04-03T15:34:20;9.75;;;5.45;;
23179;SDS011;11758;45.756;11.432;2023-04-03T15:36:46;10.52;;;5.63;;
23179;SDS011;11758;45.756;11.432;2023-04-03T15:39:12;12.13;;;6.65;;
23179;SDS011;11758;45.756;11.432;2023-04-03T15:41:39;7.60;;;5.85;;
23179;SDS011;11758;45.756;11.432;2023-04-03T15:44:05;9.20;;;5.32;;
23179;SDS011;11758;45.756;11.432;2023-04-03T15:46:32;9.90;;;5.90;;
23179;SDS011;11758;45.756;11.432;2023-04-03T15:48:58;10.63;;;5.35;;
23179;SDS011;11758;45.756;11.432;2023-04-03T15:51:24;6.80;;;5.18;;
23179;SDS011;11758;45.756;11.432;2023-04-03T15:53:50;10.00;;;5.57;;
23179;SDS011;11758;45.756;11.432;2023-04-03T15:56:17;9.07;;;5.50;;
23179;SDS011;11758;45.756;11.432;2023-04-03T15:58:43;12.25;;;5.60;;
23179;SDS011;11758;45.756;11.432;2023-04-03T16:01:09;10.52;;;7.60;;
23179;SDS011;11758;45.756;11.432;2023-04-03T16:03:36;13.00;;;6.90;;
23179;SDS011;11758;45.756;11.432;2023-04-03T16:06:08;11.73;;;6.00;;
23179;SDS011;11758;45.756;11.432;2023-04-03T16:08:34;7.65;;;5.10;;
23179;SDS011;11758;45.756;11.432;2023-04-03T16:11:01;14.20;;;8.38;;
23179;SDS011;11758;45.756;11.432;2023-04-03T16:13:27;14.57;;;7.85;;
23179;SDS011;11758;45.756;11.432;2023-04-03T16:15:55;8.45;;;5.70;;
23179;SDS011;11758;45.756;11.432;2023-04-03T16:18:29;11.68;;;4.55;;
23179;SDS011;11758;45.756;11.432;2023-04-03T16:20:55;12.60;;;4.30;;
23179;SDS011;11758;45.756;11.432;2023-04-03T16:23:22;6.85;;;3.70;;
23179;SDS011;11758;45.756;11.432;2023-04-03T16:25:48;11.57;;;4.35;;
23179;SDS011;11758;45.756;11.432;2023-04-03T16:28:15;13.63;;;5.50;;
23179;SDS011;11758;45.756;11.432;2023-04-03T16:30:43;12.85;;;3.63;;
23179;SDS011;11758;45.756;11.432;2023-04-03T16:33:10;11.23;;;4.50;;
23179;SDS011;11758;45.756;11.432;2023-04-03T16:35:37;8.60;;;3.53;;
23179;SDS011;11758;45.756;11.432;2023-04-03T16:38:04;9.43;;;3.67;;
23179;SDS011;11758;45.756;11.432;2023-04-03T16:40:30;11.07;;;4.20;;
23179;SDS011;11758;45.756;11.432;2023-04-03T16:42:58;7.68;;;3.85;;